Time;durP1;ratioP1;P1;durP2;ratioP2;P2;SDS_P1;SDS_P2;PMS_P1;PMS_P2;Temp;Humidity;BMP_temperature;BMP_pressure;BME280_temperature;BME280_humidity;BME280_pressure;Samples;Min_cycle;Max_cycle;Signal;HPM_P1;HPM_P2
2022/01/06 00:02:00;;;;;;;20.17;4.78;;;-1.90;99.90;;;;;;4976693;28;20086;-89
2022/01/06 00:04:26;;;;;;;17.63;4.15;;;-1.90;99.90;;;;;;4976560;28;20027;-91
2022/01/06 00:06:52;;;;;;;8.55;3.15;;;-1.90;99.90;;;;;;4978014;28;20036;-90
2022/01/06 00:09:19;;;;;;;16.25;3.60;;;-2.00;99.90;;;;;;4976570;28;20034;-91
2022/01/06 00:11:45;;;;;;;20.92;4.80;;;-2.00;99.90;;;;;;4978404;28;20047;-91
2022/01/06 00:25:13;;;;;;;13.07;4.78;;;-2.10;99.90;;;;;;4976844;28;20503;-91
2022/01/06 00:27:38;;;;;;;10.65;3.70;;;-2.10;99.90;;;;;;4975411;28;20026;-89
2022/01/06 00:30:05;;;;;;;19.63;4.75;;;-2.20;99.90;;;;;;4975360;28;20464;-92
2022/01/06 00:32:30;;;;;;;16.50;5.20;;;-2.10;99.90;;;;;;4975483;28;20034;-90
2022/01/06 00:34:56;;;;;;;15.95;4.25;;;-2.10;99.90;;;;;;4969476;28;20396;-90
2022/01/06 00:37:21;;;;;;;10.30;3.88;;;-2.20;99.90;;;;;;4959357;28;20105;-91
2022/01/06 00:39:47;;;;;;;13.82;4.20;;;-2.20;99.90;;;;;;4959575;28;20034;-90
2022/01/06 00:42:13;;;;;;;7.35;2.95;;;-2.10;99.90;;;;;;4959402;28;20046;-90
2022/01/06 00:44:39;;;;;;;13.00;3.40;;;-2.20;99.90;;;;;;4958951;28;20481;-88
2022/01/06 00:47:05;;;;;;;9.32;3.42;;;-2.20;99.90;;;;;;4958956;28;20031;-91
2022/01/06 00:49:30;;;;;;;12.65;3.17;;;-2.20;99.90;;;;;;4959220;28;20038;-88
2022/01/06 00:51:56;;;;;;;17.75;4.68;;;-2.20;99.90;;;;;;4958836;28;20109;-89
2022/01/06 00:54:22;;;;;;;12.60;4.35;;;-2.20;99.90;;;;;;4958626;28;20035;-90
2022/01/06 00:56:48;;;;;;;10.60;3.92;;;-2.20;99.90;;;;;;4958558;28;20031;-90
2022/01/06 00:59:13;;;;;;;14.25;3.17;;;-2.20;99.90;;;;;;4958754;28;20110;-89
2022/01/06 01:01:39;;;;;;;9.82;2.80;;;-2.20;99.90;;;;;;4974854;28;20412;-89
2022/01/06 01:04:04;;;;;;;15.48;4.43;;;-2.30;99.90;;;;;;4974880;28;20488;-90
2022/01/06 01:06:30;;;;;;;12.90;4.28;;;-2.30;99.90;;;;;;4961718;28;20022;-90
2022/01/06 01:08:56;;;;;;;11.52;3.28;;;-2.30;99.90;;;;;;4958708;28;20053;-90
2022/01/06 01:11:23;;;;;;;8.38;2.97;;;-2.40;99.90;;;;;;4957650;28;20027;-90
2022/01/06 01:13:55;;;;;;;7.93;2.42;;;-2.40;99.90;;;;;;4957678;28;20027;-90
2022/01/06 01:16:27;;;;;;;10.07;3.08;;;-2.40;99.90;;;;;;4954426;28;20037;-90
2022/01/06 01:18:56;;;;;;;13.77;3.75;;;-2.40;99.90;;;;;;4957607;28;20027;-89
2022/01/06 01:21:26;;;;;;;9.57;2.47;;;-2.40;99.90;;;;;;4965900;28;20048;-89
2022/01/06 01:23:55;;;;;;;9.40;3.55;;;-2.40;99.90;;;;;;4963281;28;20042;-89
2022/01/06 01:26:21;;;;;;;11.43;3.70;;;-2.40;99.90;;;;;;4948365;28;20039;-89
2022/01/06 01:36:03;;;;;;;15.43;5.22;;;-2.60;99.90;;;;;;4916395;28;20027;-89
2022/01/06 01:38:29;;;;;;;16.55;5.32;;;-2.60;99.90;;;;;;4958803;28;20045;-88
2022/01/06 01:40:55;;;;;;;15.70;3.50;;;-2.60;99.90;;;;;;4957066;28;20030;-89
2022/01/06 01:43:21;;;;;;;12.13;2.75;;;-2.60;99.90;;;;;;4957058;28;20039;-88
2022/01/06 01:45:54;;;;;;;9.45;2.50;;;-2.60;99.90;;;;;;4956006;28;20026;-88
2022/01/06 01:48:26;;;;;;;10.07;4.22;;;-2.60;99.90;;;;;;4956208;28;20035;-89
2022/01/06 01:50:51;;;;;;;13.30;3.33;;;-2.70;99.90;;;;;;4956509;28;20027;-90
2022/01/06 01:53:17;;;;;;;14.80;3.80;;;-2.70;99.90;;;;;;4955764;28;20082;-89
2022/01/06 01:55:43;;;;;;;9.43;3.75;;;-2.70;99.90;;;;;;4970932;28;20262;-91
2022/01/06 01:58:09;;;;;;;7.88;3.40;;;-2.80;99.90;;;;;;4976682;28;20082;-89
2022/01/06 02:00:35;;;;;;;8.73;3.70;;;-2.80;99.90;;;;;;4977684;28;20111;-88
2022/01/06 02:03:01;;;;;;;12.25;3.78;;;-2.80;99.90;;;;;;4963742;28;20027;-89
2022/01/06 02:05:28;;;;;;;10.85;4.75;;;-2.90;99.90;;;;;;4964664;28;20031;-88
2022/01/06 02:07:56;;;;;;;20.10;5.43;;;-2.90;99.90;;;;;;4960028;28;20026;-89
2022/01/06 02:10:22;;;;;;;21.83;4.60;;;-2.90;99.90;;;;;;4969306;28;20283;-89
2022/01/06 02:12:50;;;;;;;11.82;3.72;;;-3.00;99.90;;;;;;4960483;28;20488;-89
2022/01/06 02:15:17;;;;;;;12.35;4.32;;;-3.00;99.90;;;;;;4955369;28;20022;-90
2022/01/06 02:17:44;;;;;;;15.10;3.80;;;-3.00;99.90;;;;;;4969137;28;20030;-88
2022/01/06 02:20:13;;;;;;;14.68;3.42;;;-3.00;99.90;;;;;;4963681;28;20019;-88
2022/01/06 02:22:39;;;;;;;9.80;2.90;;;-3.00;99.90;;;;;;4949000;29;20034;-89
2022/01/06 02:25:30;;;;;;;13.10;3.15;;;-3.10;99.90;;;;;;4959950;28;20027;-89
2022/01/06 02:27:56;;;;;;;7.38;2.00;;;-3.10;99.90;;;;;;4949262;28;20429;-89
2022/01/06 02:30:24;;;;;;;6.93;2.63;;;-3.10;99.90;;;;;;4950285;28;20030;-88
2022/01/06 02:32:50;;;;;;;12.70;3.08;;;-3.10;99.90;;;;;;4947658;28;20042;-88
2022/01/06 02:35:18;;;;;;;7.30;2.72;;;-3.10;99.90;;;;;;4953620;28;20174;-88
2022/01/06 02:37:45;;;;;;;10.23;2.75;;;-3.20;99.90;;;;;;4954023;29;20047;-88
2022/01/06 02:40:14;;;;;;;8.75;2.38;;;-3.20;99.90;;;;;;4958801;28;20027;-88
2022/01/06 02:42:47;;;;;;;9.05;2.63;;;-3.10;99.90;;;;;;4959701;28;20038;-88
2022/01/06 02:45:14;;;;;;;9.77;2.20;;;-3.10;99.90;;;;;;4957882;28;20031;-88
2022/01/06 02:47:41;;;;;;;10.43;2.47;;;-3.20;99.90;;;;;;4952965;29;20607;-89
2022/01/06 02:50:08;;;;;;;6.05;2.40;;;-3.10;99.90;;;;;;4959297;28;20031;-88
2022/01/06 02:52:34;;;;;;;9.10;2.65;;;-3.20;99.90;;;;;;4976615;28;20061;-88
2022/01/06 02:55:00;;;;;;;6.13;2.55;;;-3.20;99.90;;;;;;4976751;28;20035;-89
2022/01/06 02:57:26;;;;;;;13.65;2.90;;;-3.20;99.90;;;;;;4976548;28;20541;-88
2022/01/06 02:59:51;;;;;;;9.63;2.83;;;-3.30;99.90;;;;;;4976247;28;20384;-88
2022/01/06 03:02:17;;;;;;;11.15;2.85;;;-3.30;99.90;;;;;;4976455;28;20023;-88
2022/01/06 03:04:43;;;;;;;10.20;2.78;;;-3.30;99.90;;;;;;4981262;28;20026;-88
2022/01/06 03:07:08;;;;;;;7.65;2.92;;;-3.30;99.90;;;;;;4989311;28;20034;-88
2022/01/06 03:09:42;;;;;;;9.45;2.78;;;-3.40;99.90;;;;;;4995878;28;20047;-89
2022/01/06 03:12:46;;;;;;;6.38;2.58;;;-3.40;99.90;;;;;;4977665;28;20058;-89
2022/01/06 03:15:08;;;;;;;18.02;3.42;;;-3.40;99.90;;;;;;4974063;28;20038;-89
2022/01/06 03:17:39;;;;;;;7.30;3.10;;;-3.40;99.90;;;;;;4970105;28;20035;-89
2022/01/06 03:20:06;;;;;;;;;;;-3.40;99.90;;;;;;4959703;28;20082;-89
2022/01/06 03:27:22;;;;;;;10.88;3.30;;;-3.40;99.90;;;;;;4944426;28;20034;-88
2022/01/06 03:29:50;;;;;;;12.48;3.67;;;-3.40;99.90;;;;;;4960522;28;20034;-89
2022/01/06 03:32:17;;;;;;;5.88;3.00;;;-3.50;99.90;;;;;;4960437;28;20035;-89
2022/01/06 03:34:42;;;;;;;7.95;2.92;;;-3.50;99.90;;;;;;4954514;29;20078;-88
2022/01/06 03:37:08;;;;;;;5.30;2.60;;;-3.50;99.90;;;;;;4958687;28;20031;-88
2022/01/06 03:39:42;;;;;;;12.70;3.38;;;-3.50;99.90;;;;;;4964932;28;20031;-88
2022/01/06 03:42:09;;;;;;;12.45;2.78;;;-3.50;99.90;;;;;;4961342;28;20058;-89
2022/01/06 03:44:34;;;;;;;15.68;3.03;;;-3.50;99.90;;;;;;4952095;29;20058;-88
2022/01/06 03:47:00;;;;;;;6.03;3.33;;;-3.50;99.90;;;;;;4956392;28;20027;-89
2022/01/06 03:49:26;;;;;;;10.20;2.92;;;-3.50;99.90;;;;;;4951997;28;20477;-88
2022/01/06 03:51:52;;;;;;;7.93;2.47;;;-3.60;99.90;;;;;;4957226;29;20166;-89
2022/01/06 03:54:17;;;;;;;8.75;2.28;;;-3.60;99.90;;;;;;4961681;28;20027;-88
2022/01/06 03:56:43;;;;;;;5.45;2.50;;;-3.60;99.90;;;;;;4973873;28;20123;-87
2022/01/06 03:59:09;;;;;;;13.05;4.43;;;-3.60;99.90;;;;;;4977226;28;20019;-87
2022/01/06 04:01:35;;;;;;;17.25;3.67;;;-3.60;99.90;;;;;;4972761;29;20019;-88
2022/01/06 04:04:00;;;;;;;11.45;3.88;;;-3.70;99.90;;;;;;4966528;28;20114;-89
2022/01/06 04:06:26;;;;;;;11.27;3.45;;;-3.70;99.90;;;;;;4964069;28;20038;-88
2022/01/06 04:08:52;;;;;;;15.25;3.65;;;-3.80;99.90;;;;;;4960087;28;20041;-88
2022/01/06 04:11:18;;;;;;;12.85;3.72;;;-3.80;99.90;;;;;;4964450;28;20037;-89
2022/01/06 04:13:44;;;;;;;13.82;3.55;;;-3.80;99.90;;;;;;4961091;28;20035;-89
2022/01/06 04:16:13;;;;;;;10.10;3.15;;;-3.80;99.90;;;;;;4958547;28;20105;-89
2022/01/06 04:18:39;;;;;;;11.93;3.28;;;-3.90;99.90;;;;;;4958642;28;20038;-89
2022/01/06 04:21:06;;;;;;;13.82;3.45;;;-4.00;99.90;;;;;;4958271;28;20034;-89
2022/01/06 04:23:35;;;;;;;11.88;4.30;;;-4.00;99.90;;;;;;4952419;29;20507;-88
2022/01/06 04:26:01;;;;;;;15.63;3.85;;;-4.00;99.90;;;;;;4956433;28;20054;-89
2022/01/06 04:28:27;;;;;;;15.18;4.07;;;-4.10;99.90;;;;;;4951631;29;20488;-88
2022/01/06 04:30:53;;;;;;;10.00;3.13;;;-4.10;99.90;;;;;;4955187;29;20067;-88
2022/01/06 04:33:19;;;;;;;13.55;3.50;;;-4.10;99.90;;;;;;4954749;29;20104;-88
2022/01/06 04:35:47;;;;;;;13.57;3.92;;;-4.10;99.90;;;;;;4954108;29;20027;-89
2022/01/06 04:38:13;;;;;;;13.43;4.47;;;-4.10;99.90;;;;;;4954464;28;20035;-89
2022/01/06 04:40:39;;;;;;;14.20;4.10;;;-4.00;99.90;;;;;;4958456;28;20337;-89
2022/01/06 04:43:05;;;;;;;10.63;3.83;;;-4.00;99.90;;;;;;4958723;28;20023;-89
2022/01/06 04:45:31;;;;;;;11.95;3.28;;;-4.00;99.90;;;;;;4977274;28;20019;-89
2022/01/06 04:47:56;;;;;;;11.93;3.55;;;-3.90;99.90;;;;;;4981267;28;20030;-89
2022/01/06 04:50:22;;;;;;;10.32;3.03;;;-3.90;99.90;;;;;;4984292;28;20023;-89
2022/01/06 04:52:48;;;;;;;7.43;2.53;;;-3.90;99.90;;;;;;4975691;28;20512;-88
2022/01/06 04:55:14;;;;;;;13.63;3.13;;;-3.90;99.90;;;;;;4974997;28;20054;-89
2022/01/06 04:57:40;;;;;;;10.60;3.15;;;-3.90;99.90;;;;;;4973984;28;20511;-91
2022/01/06 05:00:07;;;;;;;13.27;2.97;;;-3.90;99.90;;;;;;4978283;28;20030;-90
2022/01/06 05:02:33;;;;;;;13.70;3.13;;;-3.90;99.90;;;;;;4985998;28;20038;-89
2022/01/06 05:04:59;;;;;;;8.70;3.40;;;-3.90;99.90;;;;;;4996332;28;20042;-89
2022/01/06 05:07:25;;;;;;;19.02;4.10;;;-3.90;99.90;;;;;;4978457;28;20035;-89
2022/01/06 05:09:51;;;;;;;8.63;3.22;;;-3.90;99.90;;;;;;4964943;28;20042;-87
2022/01/06 05:12:16;;;;;;;9.48;2.92;;;-3.90;99.90;;;;;;4958032;28;20038;-89
2022/01/06 05:14:42;;;;;;;8.48;3.30;;;-3.90;99.90;;;;;;4958110;28;20160;-88
2022/01/06 05:17:08;;;;;;;10.20;3.30;;;-3.90;99.90;;;;;;4957738;28;20089;-87
2022/01/06 05:19:34;;;;;;;15.80;3.38;;;-3.90;99.90;;;;;;4960988;28;20038;-89
2022/01/06 05:22:02;;;;;;;11.73;3.47;;;-3.90;99.90;;;;;;4966774;28;20465;-89
2022/01/06 05:24:27;;;;;;;13.48;3.22;;;-3.90;99.90;;;;;;4974347;28;20023;-89
2022/01/06 05:26:57;;;;;;;13.88;3.53;;;-3.80;99.90;;;;;;4957790;28;20400;-89
2022/01/06 05:29:23;;;;;;;11.75;4.43;;;-3.80;99.90;;;;;;4957504;28;20105;-89
2022/01/06 05:31:49;;;;;;;11.15;3.22;;;-3.80;99.90;;;;;;4956926;28;20049;-89
2022/01/06 05:34:15;;;;;;;11.82;3.10;;;-3.80;99.90;;;;;;4967208;28;20041;-90
2022/01/06 05:36:41;;;;;;;9.30;3.80;;;-3.70;99.90;;;;;;4958097;28;20034;-89
2022/01/06 05:39:07;;;;;;;11.63;3.05;;;-3.70;99.90;;;;;;4958018;28;20113;-89
2022/01/06 05:41:33;;;;;;;12.32;3.33;;;-3.70;99.90;;;;;;4957723;28;20503;-88
2022/01/06 05:44:00;;;;;;;12.25;3.60;;;-3.70;99.90;;;;;;4957729;28;20027;-89
2022/01/06 05:46:26;;;;;;;12.27;3.05;;;-3.60;99.90;;;;;;4957615;28;20029;-89
2022/01/06 05:48:51;;;;;;;8.50;3.70;;;-3.60;99.90;;;;;;4957379;28;20031;-89
2022/01/06 05:51:17;;;;;;;15.15;3.40;;;-3.60;99.90;;;;;;4957269;28;20037;-89
2022/01/06 05:53:43;;;;;;;9.80;3.83;;;-3.60;99.90;;;;;;4957885;28;20480;-89
2022/01/06 05:56:09;;;;;;;13.07;3.25;;;-3.60;99.90;;;;;;4960738;28;20086;-89
2022/01/06 05:58:37;;;;;;;11.65;3.28;;;-3.50;99.90;;;;;;4962910;28;20046;-88
2022/01/06 06:01:03;;;;;;;10.05;3.00;;;-3.50;99.90;;;;;;4957726;28;20158;-89
2022/01/06 06:03:29;;;;;;;12.68;3.60;;;-3.50;99.90;;;;;;4974650;28;20093;-89
2022/01/06 06:05:55;;;;;;;12.32;2.80;;;-3.50;99.90;;;;;;4957295;28;20416;-89
2022/01/06 06:08:21;;;;;;;12.13;3.65;;;-3.50;99.90;;;;;;4957422;28;20038;-89
2022/01/06 06:10:47;;;;;;;8.70;3.08;;;-3.40;99.90;;;;;;4957491;28;20045;-89
2022/01/06 06:13:13;;;;;;;14.45;3.90;;;-3.40;99.90;;;;;;4957356;28;20476;-89
2022/01/06 06:15:39;;;;;;;14.02;3.25;;;-3.40;99.90;;;;;;4957352;28;20069;-89
2022/01/06 06:18:06;;;;;;;11.30;3.17;;;-3.40;99.90;;;;;;4957042;28;20070;-89
2022/01/06 06:20:32;;;;;;;14.38;3.47;;;-3.40;99.90;;;;;;4957738;28;20089;-89
2022/01/06 06:22:58;;;;;;;10.98;2.97;;;-3.30;99.90;;;;;;4958433;28;20030;-90
2022/01/06 06:25:25;;;;;;;9.32;3.70;;;-3.40;99.90;;;;;;4962787;28;20050;-87
2022/01/06 06:27:51;;;;;;;11.27;3.60;;;-3.30;99.90;;;;;;4971174;28;20034;-88
2022/01/06 06:30:17;;;;;;;16.55;4.25;;;-3.30;99.90;;;;;;4976067;28;20035;-89
2022/01/06 06:32:43;;;;;;;18.88;3.47;;;-3.20;99.90;;;;;;4976474;28;20087;-89
2022/01/06 06:35:09;;;;;;;8.55;3.05;;;-3.20;99.90;;;;;;4973232;28;20030;-89
2022/01/06 06:37:35;;;;;;;7.50;2.90;;;-3.20;99.90;;;;;;4965428;28;20054;-89
2022/01/06 06:40:01;;;;;;;12.40;3.72;;;-3.10;99.90;;;;;;4961579;28;20125;-89
2022/01/06 06:42:30;;;;;;;11.95;3.20;;;-3.10;99.90;;;;;;4962149;28;20031;-89
2022/01/06 06:44:56;;;;;;;10.63;2.72;;;-3.10;99.90;;;;;;4960017;28;20027;-89
2022/01/06 06:47:22;;;;;;;13.95;3.55;;;-3.10;99.90;;;;;;4961296;28;20153;-89
2022/01/06 06:49:48;;;;;;;13.15;3.65;;;-3.10;99.90;;;;;;4962030;28;20143;-89
2022/01/06 06:52:14;;;;;;;12.10;3.42;;;-3.00;99.90;;;;;;4957372;28;20059;-90
2022/01/06 06:54:40;;;;;;;13.00;3.22;;;-3.00;99.90;;;;;;4957261;28;20121;-91
2022/01/06 06:57:05;;;;;;;10.73;3.10;;;-3.00;99.90;;;;;;4956544;28;20047;-89
2022/01/06 06:59:31;;;;;;;16.33;4.45;;;-3.00;99.90;;;;;;4956886;28;20023;-90
2022/01/06 07:01:57;;;;;;;18.55;5.18;;;-2.90;99.90;;;;;;4957163;28;20365;-91
2022/01/06 07:04:22;;;;;;;11.05;3.60;;;-3.00;99.90;;;;;;4964294;28;20026;-91
2022/01/06 07:06:48;;;;;;;20.63;4.15;;;-2.90;99.90;;;;;;4968452;28;20027;-91
2022/01/06 07:09:14;;;;;;;12.23;3.50;;;-2.90;99.90;;;;;;4969897;28;20075;-90
2022/01/06 07:11:40;;;;;;;18.23;3.70;;;-2.90;99.90;;;;;;4968473;28;20038;-90
2022/01/06 07:14:06;;;;;;;12.90;4.63;;;-2.90;99.90;;;;;;4956276;28;20521;-91
2022/01/06 07:16:31;;;;;;;13.55;3.65;;;-2.90;99.90;;;;;;4956753;28;20027;-90
2022/01/06 07:18:57;;;;;;;15.18;4.30;;;-2.90;99.90;;;;;;4957303;28;20102;-90
2022/01/06 07:21:29;;;;;;;8.57;2.85;;;-2.90;99.90;;;;;;4957570;28;20022;-91
2022/01/06 07:23:55;;;;;;;8.98;3.13;;;-2.80;99.90;;;;;;4959714;28;20133;-90
2022/01/06 07:26:21;;;;;;;14.70;3.20;;;-2.80;99.90;;;;;;4948956;29;20027;-89
2022/01/06 07:28:47;;;;;;;22.33;3.60;;;-2.80;99.90;;;;;;4958420;29;20023;-89
2022/01/06 07:31:14;;;;;;;13.60;3.20;;;-2.70;99.90;;;;;;4960993;28;20110;-88
2022/01/06 07:33:40;;;;;;;11.52;2.67;;;-2.60;99.90;;;;;;4961375;28;20117;-90
2022/01/06 07:36:07;;;;;;;11.20;3.63;;;-2.60;99.90;;;;;;4962277;28;20050;-90
2022/01/06 07:38:33;;;;;;;6.93;2.78;;;-2.60;99.90;;;;;;4962403;28;20050;-89
2022/01/06 07:40:59;;;;;;;13.00;3.00;;;-2.60;99.90;;;;;;4961232;28;20038;-91
2022/01/06 07:43:24;;;;;;;15.65;3.30;;;-2.50;99.90;;;;;;4959672;28;20425;-91
2022/01/06 07:45:50;;;;;;;8.40;3.80;;;-2.50;99.90;;;;;;4958993;28;20019;-91
2022/01/06 07:48:26;;;;;;;11.73;3.00;;;-2.50;99.90;;;;;;4959278;28;20026;-91
2022/01/06 07:50:52;;;;;;;13.77;3.38;;;-2.50;99.90;;;;;;4959473;28;20400;-90
2022/01/06 07:53:19;;;;;;;17.75;3.92;;;-2.40;99.90;;;;;;4959447;28;20086;-90
2022/01/06 07:55:44;;;;;;;14.68;3.70;;;-2.40;99.90;;;;;;4960085;28;20488;-90
2022/01/06 07:58:10;;;;;;;14.77;3.88;;;-2.40;99.90;;;;;;4957931;28;20034;-91
2022/01/06 08:00:36;;;;;;;10.82;3.58;;;-2.40;99.90;;;;;;4953403;29;20031;-89
2022/01/06 08:03:02;;;;;;;14.15;3.50;;;-2.30;99.90;;;;;;4956908;28;20579;-90
2022/01/06 08:05:29;;;;;;;12.68;4.00;;;-2.30;99.90;;;;;;4959363;28;20019;-90
2022/01/06 08:07:55;;;;;;;11.30;3.10;;;-2.30;99.90;;;;;;4959211;28;20094;-91
2022/01/06 08:10:22;;;;;;;10.73;3.38;;;-2.20;99.90;;;;;;4945293;29;20033;-90
2022/01/06 08:12:48;;;;;;;9.05;3.13;;;-2.10;99.90;;;;;;4971721;28;20041;-90
2022/01/06 08:15:17;;;;;;;16.92;5.95;;;-2.10;99.90;;;;;;4956450;28;20023;-91
2022/01/06 08:17:43;;;;;;;14.75;3.25;;;-2.00;99.90;;;;;;4968924;28;20050;-90
2022/01/06 08:20:13;;;;;;;20.15;4.07;;;-1.90;99.90;;;;;;4956107;28;20135;-89
2022/01/06 08:23:05;;;;;;;11.63;3.70;;;-1.80;99.90;;;;;;4958400;28;20023;-90
2022/01/06 08:25:31;;;;;;;11.90;3.70;;;-1.70;99.90;;;;;;4974252;28;20042;-90
2022/01/06 08:27:57;;;;;;;14.70;3.97;;;-1.60;99.90;;;;;;4950096;28;20027;-91
2022/01/06 08:30:26;;;;;;;16.83;4.18;;;-1.60;99.90;;;;;;4947599;29;20110;-90
2022/01/06 08:32:52;;;;;;;12.65;4.40;;;-1.60;99.90;;;;;;4953931;28;20606;-90
2022/01/06 08:35:19;;;;;;;24.38;3.58;;;-1.50;99.90;;;;;;4953914;29;20035;-90
2022/01/06 08:37:44;;;;;;;14.65;4.60;;;-1.50;99.90;;;;;;4954446;29;20038;-91
2022/01/06 08:40:11;;;;;;;15.63;5.10;;;-1.50;99.90;;;;;;4956663;28;20038;-90
2022/01/06 08:42:36;;;;;;;9.93;3.72;;;-1.40;99.90;;;;;;4953518;29;20114;-89
2022/01/06 08:45:04;;;;;;;19.05;4.18;;;-1.40;99.90;;;;;;4970679;28;20023;-90
2022/01/06 08:47:30;;;;;;;13.43;4.05;;;-1.40;99.90;;;;;;4959109;28;20077;-90
2022/01/06 08:49:56;;;;;;;17.17;4.88;;;-1.30;99.90;;;;;;4957605;28;20473;-90
2022/01/06 08:52:22;;;;;;;9.38;4.57;;;-1.30;99.90;;;;;;4941368;29;20214;-89
2022/01/06 08:54:48;;;;;;;14.20;4.78;;;-1.20;99.90;;;;;;4937850;29;20043;-90
2022/01/06 08:57:14;;;;;;;18.38;5.28;;;-1.20;99.90;;;;;;4952041;29;20035;-89
2022/01/06 08:59:41;;;;;;;17.65;4.50;;;-1.20;99.90;;;;;;4938518;29;20031;-88
2022/01/06 09:02:06;;;;;;;14.80;4.93;;;-1.10;99.90;;;;;;4938536;29;20031;-90
2022/01/06 09:04:32;;;;;;;24.52;5.78;;;-1.10;99.90;;;;;;4939699;29;20041;-89
2022/01/06 09:06:58;;;;;;;17.70;5.80;;;-1.00;99.90;;;;;;4941312;29;20034;-90
2022/01/06 09:09:25;;;;;;;19.42;5.43;;;-0.90;99.90;;;;;;4940981;29;20114;-90
2022/01/06 09:11:51;;;;;;;17.55;5.47;;;-0.90;99.90;;;;;;4942380;29;20086;-91
2022/01/06 09:14:16;;;;;;;26.42;11.02;;;-0.80;99.90;;;;;;4949833;29;20031;-91
2022/01/06 09:16:43;;;;;;;27.63;9.32;;;-0.80;99.90;;;;;;4957887;29;20539;-90
2022/01/06 09:19:08;;;;;;;23.08;8.68;;;-0.70;99.90;;;;;;4945844;29;20035;-90
2022/01/06 09:21:34;;;;;;;19.50;8.48;;;-0.70;99.90;;;;;;4948893;29;20064;-89
2022/01/06 09:24:02;;;;;;;21.95;5.55;;;-0.60;99.90;;;;;;4939786;29;20046;-90
2022/01/06 09:26:28;;;;;;;34.40;12.25;;;-0.40;99.90;;;;;;4949862;29;20500;-90
2022/01/06 09:28:54;;;;;;;21.27;8.90;;;-0.40;99.90;;;;;;4949395;29;20084;-91
2022/01/06 09:31:22;;;;;;;20.40;7.03;;;-0.40;99.90;;;;;;4944479;29;20035;-89
2022/01/06 09:33:48;;;;;;;21.00;5.93;;;-0.40;99.90;;;;;;4942933;29;20123;-90
2022/01/06 09:36:13;;;;;;;24.02;7.32;;;-0.30;99.90;;;;;;4946282;29;20062;-90
2022/01/06 09:38:41;;;;;;;20.67;6.40;;;-0.30;99.90;;;;;;4946253;29;20041;-90
2022/01/06 09:41:07;;;;;;;16.35;5.55;;;-0.30;99.90;;;;;;4946125;29;20081;-91
2022/01/06 09:43:35;;;;;;;16.00;6.05;;;-0.20;99.90;;;;;;4945921;28;20031;-90
2022/01/06 09:46:06;;;;;;;25.17;6.97;;;-0.20;99.90;;;;;;4942352;28;20026;-92
2022/01/06 09:48:35;;;;;;;23.00;4.13;;;-0.10;99.90;;;;;;4943731;28;20034;-92
2022/01/06 09:51:04;;;;;;;17.30;4.78;;;-0.10;99.90;;;;;;4946067;29;20035;-91
2022/01/06 09:53:30;;;;;;;10.05;3.78;;;0.00;99.90;;;;;;4957179;28;20039;-92
2022/01/06 09:55:56;;;;;;;15.02;3.80;;;0.00;99.90;;;;;;4957618;28;20031;-91
2022/01/06 09:58:25;;;;;;;14.52;4.60;;;0.10;99.90;;;;;;4961310;28;20038;-88
2022/01/06 10:00:52;;;;;;;11.25;4.25;;;0.10;99.90;;;;;;4954878;28;20109;-91
2022/01/06 10:03:17;;;;;;;16.58;4.72;;;0.20;99.90;;;;;;4957247;28;20037;-90
2022/01/06 10:05:49;;;;;;;13.32;4.63;;;0.30;99.90;;;;;;4957149;28;20117;-92
2022/01/06 10:08:27;;;;;;;14.55;3.60;;;0.30;99.90;;;;;;4969720;28;20038;-90
2022/01/06 10:11:08;;;;;;;12.70;3.80;;;0.30;99.90;;;;;;4956527;28;20030;-91
2022/01/06 10:13:33;;;;;;;12.43;3.85;;;0.40;99.90;;;;;;4958116;28;20026;-91
2022/01/06 10:16:16;;;;;;;15.45;3.40;;;0.40;99.90;;;;;;4958579;28;20045;-92
2022/01/06 10:18:55;;;;;;;13.23;3.70;;;0.50;99.90;;;;;;4958719;28;20039;-90
2022/01/06 10:21:21;;;;;;;13.35;2.55;;;0.60;99.90;;;;;;4956512;28;20038;-91
2022/01/06 10:24:03;;;;;;;10.10;2.83;;;0.80;99.90;;;;;;4957555;28;20086;-90
2022/01/06 10:26:30;;;;;;;10.15;2.40;;;0.80;99.90;;;;;;4957004;28;20026;-90
2022/01/06 10:28:57;;;;;;;13.35;2.65;;;0.90;99.90;;;;;;4957357;28;20111;-90
2022/01/06 10:31:24;;;;;;;9.07;2.28;;;1.00;99.90;;;;;;4958467;28;20037;-90
2022/01/06 10:33:53;;;;;;;15.25;2.92;;;1.10;99.90;;;;;;4957288;28;20484;-87
2022/01/06 10:36:31;;;;;;;9.38;2.80;;;1.20;99.90;;;;;;4957554;28;20523;-89
2022/01/06 10:38:59;;;;;;;6.60;2.17;;;1.20;99.90;;;;;;4940964;28;20412;-89
2022/01/06 10:41:27;;;;;;;7.32;2.00;;;1.20;99.90;;;;;;4956922;28;20030;-89
2022/01/06 10:43:58;;;;;;;9.57;1.83;;;1.20;99.90;;;;;;4954331;28;20027;-88
2022/01/06 10:46:34;;;;;;;11.80;1.90;;;1.30;99.90;;;;;;4962038;28;20034;-89
2022/01/06 10:49:07;;;;;;;4.40;1.63;;;1.30;99.90;;;;;;4956409;28;20023;-90
2022/01/06 10:51:53;;;;;;;7.75;2.72;;;1.40;99.90;;;;;;4947424;28;20042;-90
2022/01/06 10:54:24;;;;;;;14.32;2.40;;;1.40;99.90;;;;;;4955246;28;20074;-90
2022/01/06 10:56:56;;;;;;;8.70;3.15;;;1.40;99.90;;;;;;4958693;28;20050;-89
2022/01/06 10:59:31;;;;;;;6.85;2.10;;;1.50;99.90;;;;;;4977282;28;20040;-91
2022/01/06 11:01:57;;;;;;;6.03;2.47;;;1.50;99.90;;;;;;4974866;28;20022;-91
2022/01/06 11:04:24;;;;;;;7.63;2.53;;;1.50;99.90;;;;;;4960413;28;20031;-92
2022/01/06 11:06:50;;;;;;;6.82;2.38;;;1.50;99.90;;;;;;4941873;29;20574;-91
2022/01/06 11:09:17;;;;;;;8.50;2.08;;;1.60;99.90;;;;;;4962341;28;20031;-93
2022/01/06 11:14:17;;;;;;;7.25;2.25;;;1.60;99.90;;;;;;4965239;28;20050;-92
2022/01/06 11:16:44;;;;;;;6.53;1.83;;;1.70;99.90;;;;;;4956508;28;20023;-90
2022/01/06 11:19:12;;;;;;;15.90;3.13;;;1.60;99.90;;;;;;4959124;28;20047;-91
2022/01/06 11:21:40;;;;;;;10.60;2.72;;;1.70;99.90;;;;;;4942132;29;20028;-92
2022/01/06 11:24:14;;;;;;;15.93;3.60;;;1.70;99.90;;;;;;4941458;29;20511;-91
2022/01/06 11:26:55;;;;;;;11.68;2.42;;;1.70;99.90;;;;;;4957466;29;20064;-92
2022/01/06 11:29:25;;;;;;;;;;;1.70;99.90;;;;;;4942025;29;20180;-91
2022/01/06 11:31:51;;;;;;;6.30;2.13;;;1.70;99.90;;;;;;4941227;29;20035;-91
2022/01/06 11:34:19;;;;;;;7.00;2.40;;;1.70;99.90;;;;;;4958452;29;20067;-90
2022/01/06 11:36:49;;;;;;;18.63;3.65;;;1.70;99.90;;;;;;4941360;29;20039;-90
2022/01/06 11:39:23;;;;;;;8.02;2.28;;;1.70;99.90;;;;;;4941273;29;20036;-91
2022/01/06 11:41:51;;;;;;;10.38;2.45;;;1.70;99.90;;;;;;4941200;29;20502;-90
2022/01/06 11:44:30;;;;;;;7.78;2.63;;;1.70;99.90;;;;;;4941453;29;20062;-91
2022/01/06 11:46:58;;;;;;;12.18;3.40;;;1.70;99.90;;;;;;4941152;29;20519;-89
2022/01/06 11:49:42;;;;;;;5.60;2.15;;;1.60;99.90;;;;;;4946471;29;20031;-88
2022/01/06 11:52:08;;;;;;;6.97;2.25;;;1.60;99.90;;;;;;4947608;29;20051;-90
2022/01/06 11:54:44;;;;;;;11.00;2.53;;;1.60;99.90;;;;;;4961526;29;20063;-90
2022/01/06 11:57:10;;;;;;;5.65;2.40;;;1.60;99.90;;;;;;4943870;29;20035;-89
2022/01/06 11:59:38;;;;;;;6.13;2.40;;;1.50;99.90;;;;;;4942979;29;20118;-89
2022/01/06 12:02:04;;;;;;;12.50;2.75;;;1.50;99.90;;;;;;4942714;29;20038;-90
2022/01/06 12:04:30;;;;;;;7.00;2.85;;;1.40;99.90;;;;;;4942631;29;20034;-90
2022/01/06 12:07:04;;;;;;;6.38;2.38;;;1.40;99.90;;;;;;4941552;28;20549;-90
2022/01/06 12:09:30;;;;;;;16.42;3.10;;;1.50;99.90;;;;;;4943354;29;20033;-90
2022/01/06 12:12:09;;;;;;;7.15;3.08;;;1.50;99.90;;;;;;4941573;29;20133;-90
2022/01/06 12:14:35;;;;;;;7.25;3.13;;;1.40;99.90;;;;;;4941438;29;20034;-90
2022/01/06 12:17:11;;;;;;;4.10;2.25;;;1.40;99.90;;;;;;4940847;29;20035;-92
2022/01/06 12:19:38;;;;;;;7.43;2.55;;;1.40;99.90;;;;;;4940884;29;20400;-91
2022/01/06 12:22:09;;;;;;;4.78;2.47;;;1.40;99.90;;;;;;4941254;29;20082;-92
2022/01/06 12:24:35;;;;;;;6.03;2.55;;;1.40;99.90;;;;;;4941241;29;20039;-92
2022/01/06 12:27:05;;;;;;;1.75;1.42;;;1.40;99.90;;;;;;4941003;29;20035;-91
2022/01/06 12:29:36;;;;;;;1.83;1.33;;;1.30;99.90;;;;;;4940720;29;20050;-90
2022/01/06 12:32:07;;;;;;;5.88;2.25;;;1.30;99.90;;;;;;4940862;29;20031;-91
2022/01/06 12:34:32;;;;;;;2.58;2.13;;;1.30;99.90;;;;;;4940149;29;20030;-90
2022/01/06 12:36:58;;;;;;;3.38;2.08;;;1.30;99.90;;;;;;4940528;29;20031;-89
2022/01/06 12:39:24;;;;;;;3.42;2.40;;;1.30;99.90;;;;;;4940013;29;20035;-88
2022/01/06 12:41:51;;;;;;;1.83;1.25;;;1.30;99.90;;;;;;4940070;29;20035;-88
2022/01/06 12:44:20;;;;;;;3.22;1.75;;;1.30;99.90;;;;;;4940098;29;20035;-88
2022/01/06 12:46:46;;;;;;;2.67;1.45;;;1.30;99.90;;;;;;4939882;29;20034;-89
2022/01/06 12:49:12;;;;;;;3.83;2.47;;;1.30;99.90;;;;;;4939305;29;20027;-88
2022/01/06 12:51:44;;;;;;;2.00;1.42;;;1.40;99.90;;;;;;4939436;29;20134;-88
2022/01/06 12:54:16;;;;;;;4.68;2.13;;;1.40;99.90;;;;;;4939575;29;20121;-87
2022/01/06 12:56:56;;;;;;;3.13;1.80;;;1.40;99.90;;;;;;4939628;29;20491;-89
2022/01/06 12:59:34;;;;;;;2.35;1.60;;;1.40;99.90;;;;;;4939378;29;20103;-89
2022/01/06 13:02:02;;;;;;;4.60;2.55;;;1.40;99.90;;;;;;4939277;29;20071;-88
2022/01/06 13:04:33;;;;;;;3.85;2.22;;;1.40;99.90;;;;;;4939084;29;20086;-88
2022/01/06 13:07:03;;;;;;;2.13;1.63;;;1.40;99.90;;;;;;4939580;29;20081;-88
2022/01/06 13:09:31;;;;;;;3.80;1.27;;;1.40;99.90;;;;;;4939502;29;20066;-88
2022/01/06 13:11:58;;;;;;;1.60;1.50;;;1.40;99.90;;;;;;4939290;29;20054;-87